sensor_id;sensor_type;location;lat;lon;timestamp;pressure;altitude;pressure_sealevel;temperature;humidity
38225;BME280;24025;48.138;11.428;2024-02-21T00:00:02;96494.06;;;4.77;70.17
38225;BME280;24025;48.138;11.428;2024-02-21T00:02:33;96502.06;;;4.86;70.48
38225;BME280;24025;48.138;11.428;2024-02-21T00:05:05;96495.53;;;4.83;70.69
38225;BME280;24025;48.138;11.428;2024-02-21T00:07:37;96493.19;;;4.81;70.86
38225;BME280;24025;48.138;11.428;2024-02-21T00:10:09;96496.97;;;4.89;71.12
38225;BME280;24025;48.138;11.428;2024-02-21T00:12:40;96497.63;;;4.95;70.90
38225;BME280;24025;48.138;11.428;2024-02-21T00:15:12;96509.09;;;4.90;71.32
38225;BME280;24025;48.138;11.428;2024-02-21T00:17:44;96497.59;;;4.86;71.68
38225;BME280;24025;48.138;11.428;2024-02-21T00:20:16;96489.56;;;5.00;70.46
38225;BME280;24025;48.138;11.428;2024-02-21T00:22:47;96499.09;;;5.09;71.02
38225;BME280;24025;48.138;11.428;2024-02-21T00:25:19;96495.88;;;5.13;71.13
38225;BME280;24025;48.138;11.428;2024-02-21T00:27:51;96489.50;;;5.14;71.39
38225;BME280;24025;48.138;11.428;2024-02-21T00:30:23;96487.63;;;5.14;71.54
38225;BME280;24025;48.138;11.428;2024-02-21T00:32:54;96478.44;;;5.11;71.58
38225;BME280;24025;48.138;11.428;2024-02-21T00:35:26;96470.06;;;5.18;71.29
38225;BME280;24025;48.138;11.428;2024-02-21T00:37:58;96467.91;;;5.20;71.85
38225;BME280;24025;48.138;11.428;2024-02-21T00:40:31;96461.84;;;5.20;71.65
38225;BME280;24025;48.138;11.428;2024-02-21T00:43:02;96458.41;;;5.19;71.45
38225;BME280;24025;48.138;11.428;2024-02-21T00:45:34;96462.91;;;5.19;71.30
38225;BME280;24025;48.138;11.428;2024-02-21T00:48:06;96460.59;;;5.17;71.80
38225;BME280;24025;48.138;11.428;2024-02-21T00:50:38;96464.28;;;5.07;71.87
38225;BME280;24025;48.138;11.428;2024-02-21T00:53:10;96467.28;;;5.15;72.03
38225;BME280;24025;48.138;11.428;2024-02-21T00:55:41;96464.44;;;5.11;72.08
38225;BME280;24025;48.138;11.428;2024-02-21T00:58:14;96457.13;;;5.08;72.64
38225;BME280;24025;48.138;11.428;2024-02-21T01:00:46;96454.63;;;5.11;72.70
38225;BME280;24025;48.138;11.428;2024-02-21T01:03:18;96461.78;;;5.11;72.88
38225;BME280;24025;48.138;11.428;2024-02-21T01:05:49;96457.28;;;5.11;73.04
38225;BME280;24025;48.138;11.428;2024-02-21T01:08:21;96459.03;;;5.16;72.61
38225;BME280;24025;48.138;11.428;2024-02-21T01:10:52;96451.22;;;5.11;73.59
38225;BME280;24025;48.138;11.428;2024-02-21T01:13:24;96455.91;;;5.14;72.61
38225;BME280;24025;48.138;11.428;2024-02-21T01:15:56;96458.06;;;5.12;72.79
38225;BME280;24025;48.138;11.428;2024-02-21T01:18:28;96446.28;;;5.18;72.73
38225;BME280;24025;48.138;11.428;2024-02-21T01:21:00;96443.16;;;5.16;72.70
38225;BME280;24025;48.138;11.428;2024-02-21T01:23:31;96438.66;;;5.17;73.20
38225;BME280;24025;48.138;11.428;2024-02-21T01:26:04;96439.13;;;5.19;72.96
38225;BME280;24025;48.138;11.428;2024-02-21T01:28:35;96435.53;;;5.15;72.98
38225;BME280;24025;48.138;11.428;2024-02-21T01:31:08;96428.25;;;5.20;72.47
38225;BME280;24025;48.138;11.428;2024-02-21T01:33:40;96433.84;;;5.19;73.20
38225;BME280;24025;48.138;11.428;2024-02-21T01:36:12;96431.31;;;5.05;73.74
38225;BME280;24025;48.138;11.428;2024-02-21T01:38:44;96430.56;;;5.13;73.19
38225;BME280;24025;48.138;11.428;2024-02-21T01:41:18;96434.00;;;5.14;73.14
38225;BME280;24025;48.138;11.428;2024-02-21T01:43:50;96431.94;;;5.10;73.32
38225;BME280;24025;48.138;11.428;2024-02-21T01:46:22;96425.91;;;5.19;72.92
38225;BME280;24025;48.138;11.428;2024-02-21T01:48:55;96422.69;;;5.22;72.94
38225;BME280;24025;48.138;11.428;2024-02-21T01:51:27;96415.03;;;5.20;73.18
38225;BME280;24025;48.138;11.428;2024-02-21T01:53:59;96415.34;;;5.19;73.07
38225;BME280;24025;48.138;11.428;2024-02-21T01:56:31;96402.91;;;5.19;72.98
38225;BME280;24025;48.138;11.428;2024-02-21T01:59:02;96407.28;;;5.24;73.02
38225;BME280;24025;48.138;11.428;2024-02-21T02:01:34;96408.66;;;5.13;73.84
38225;BME280;24025;48.138;11.428;2024-02-21T02:04:06;96397.13;;;5.17;73.98
38225;BME280;24025;48.138;11.428;2024-02-21T02:06:38;96395.28;;;5.18;72.98
38225;BME280;24025;48.138;11.428;2024-02-21T02:09:10;96391.69;;;5.14;73.43
38225;BME280;24025;48.138;11.428;2024-02-21T02:11:42;96385.00;;;5.16;73.01
38225;BME280;24025;48.138;11.428;2024-02-21T02:14:14;96382.81;;;5.09;74.55
38225;BME280;24025;48.138;11.428;2024-02-21T02:16:46;96385.44;;;5.09;74.10
38225;BME280;24025;48.138;11.428;2024-02-21T02:19:19;96383.47;;;5.15;73.43
38225;BME280;24025;48.138;11.428;2024-02-21T02:21:54;96372.09;;;5.15;73.35
38225;BME280;24025;48.138;11.428;2024-02-21T02:24:28;96377.31;;;4.97;74.16
38225;BME280;24025;48.138;11.428;2024-02-21T02:26:59;96365.50;;;5.03;74.04
38225;BME280;24025;48.138;11.428;2024-02-21T02:29:32;96357.00;;;5.06;73.58
38225;BME280;24025;48.138;11.428;2024-02-21T02:32:04;96359.63;;;5.06;73.43
38225;BME280;24025;48.138;11.428;2024-02-21T02:34:36;96360.09;;;5.08;74.07
38225;BME280;24025;48.138;11.428;2024-02-21T02:37:07;96360.88;;;5.09;73.68
38225;BME280;24025;48.138;11.428;2024-02-21T02:39:39;96348.59;;;5.04;73.75
38225;BME280;24025;48.138;11.428;2024-02-21T02:42:11;96352.16;;;5.08;73.82
38225;BME280;24025;48.138;11.428;2024-02-21T02:44:42;96338.78;;;5.05;74.46
38225;BME280;24025;48.138;11.428;2024-02-21T02:47:14;96345.59;;;4.97;74.05
38225;BME280;24025;48.138;11.428;2024-02-21T02:49:45;96336.75;;;5.02;74.36
38225;BME280;24025;48.138;11.428;2024-02-21T02:52:22;96333.78;;;5.03;74.37
38225;BME280;24025;48.138;11.428;2024-02-21T02:54:53;96333.66;;;5.08;73.96
38225;BME280;24025;48.138;11.428;2024-02-21T02:57:27;96330.38;;;5.03;73.83
38225;BME280;24025;48.138;11.428;2024-02-21T02:59:58;96332.69;;;4.96;75.04
38225;BME280;24025;48.138;11.428;2024-02-21T03:02:30;96326.47;;;4.92;74.82
38225;BME280;24025;48.138;11.428;2024-02-21T03:05:12;96323.38;;;4.98;74.47
38225;BME280;24025;48.138;11.428;2024-02-21T03:07:45;96321.06;;;5.05;74.09
38225;BME280;24025;48.138;11.428;2024-02-21T03:10:17;96320.44;;;5.00;74.68
38225;BME280;24025;48.138;11.428;2024-02-21T03:12:50;96320.88;;;5.02;75.16
38225;BME280;24025;48.138;11.428;2024-02-21T03:15:24;96320.75;;;5.07;74.46
38225;BME280;24025;48.138;11.428;2024-02-21T03:17:55;96324.50;;;5.06;73.66
38225;BME280;24025;48.138;11.428;2024-02-21T03:20:27;96324.19;;;5.07;74.05
38225;BME280;24025;48.138;11.428;2024-02-21T03:22:59;96325.41;;;5.01;74.22
38225;BME280;24025;48.138;11.428;2024-02-21T03:25:30;96317.00;;;4.99;73.87
38225;BME280;24025;48.138;11.428;2024-02-21T03:28:02;96320.19;;;4.79;74.46
38225;BME280;24025;48.138;11.428;2024-02-21T03:30:34;96325.69;;;4.91;74.19
38225;BME280;24025;48.138;11.428;2024-02-21T03:33:06;96319.16;;;4.89;74.67
38225;BME280;24025;48.138;11.428;2024-02-21T03:35:37;96320.72;;;4.98;74.94
38225;BME280;24025;48.138;11.428;2024-02-21T03:38:09;96324.31;;;5.02;74.31
38225;BME280;24025;48.138;11.428;2024-02-21T03:40:41;96326.34;;;5.05;73.21
38225;BME280;24025;48.138;11.428;2024-02-21T03:43:12;96320.44;;;5.08;73.60
38225;BME280;24025;48.138;11.428;2024-02-21T03:45:45;96318.13;;;5.07;73.78
38225;BME280;24025;48.138;11.428;2024-02-21T03:48:16;96319.81;;;5.11;73.26
38225;BME280;24025;48.138;11.428;2024-02-21T03:50:48;96314.41;;;5.17;73.10
38225;BME280;24025;48.138;11.428;2024-02-21T03:53:19;96310.22;;;5.16;72.42
38225;BME280;24025;48.138;11.428;2024-02-21T03:55:51;96317.84;;;5.17;72.66
38225;BME280;24025;48.138;11.428;2024-02-21T03:58:23;96313.44;;;4.95;73.19
38225;BME280;24025;48.138;11.428;2024-02-21T04:00:54;96317.34;;;5.06;73.54
38225;BME280;24025;48.138;11.428;2024-02-21T04:03:26;96315.00;;;5.05;73.27
38225;BME280;24025;48.138;11.428;2024-02-21T04:05:58;96312.84;;;5.07;73.97
38225;BME280;24025;48.138;11.428;2024-02-21T04:08:29;96311.41;;;5.01;74.54
38225;BME280;24025;48.138;11.428;2024-02-21T04:11:01;96312.59;;;4.77;74.41
38225;BME280;24025;48.138;11.428;2024-02-21T04:13:33;96311.31;;;4.75;74.55
38225;BME280;24025;48.138;11.428;2024-02-21T04:16:05;96303.19;;;4.63;75.16
38225;BME280;24025;48.138;11.428;2024-02-21T04:18:37;96307.59;;;4.76;75.13
38225;BME280;24025;48.138;11.428;2024-02-21T04:21:09;96291.91;;;4.79;75.50
38225;BME280;24025;48.138;11.428;2024-02-21T04:23:43;96292.69;;;4.80;75.36
38225;BME280;24025;48.138;11.428;2024-02-21T04:26:15;96292.38;;;4.81;74.91
38225;BME280;24025;48.138;11.428;2024-02-21T04:28:46;96291.44;;;4.77;75.80
38225;BME280;24025;48.138;11.428;2024-02-21T04:31:18;96287.53;;;4.75;74.95
38225;BME280;24025;48.138;11.428;2024-02-21T04:33:50;96279.31;;;4.76;75.65
38225;BME280;24025;48.138;11.428;2024-02-21T04:36:21;96276.53;;;4.81;74.82
38225;BME280;24025;48.138;11.428;2024-02-21T04:38:54;96273.56;;;4.83;74.85
38225;BME280;24025;48.138;11.428;2024-02-21T04:41:25;96272.19;;;4.86;74.94
38225;BME280;24025;48.138;11.428;2024-02-21T04:43:57;96268.13;;;4.79;75.25
38225;BME280;24025;48.138;11.428;2024-02-21T04:46:28;96262.09;;;4.79;76.02
38225;BME280;24025;48.138;11.428;2024-02-21T04:49:00;96257.25;;;4.81;75.04
38225;BME280;24025;48.138;11.428;2024-02-21T04:51:33;96258.03;;;4.81;74.74
38225;BME280;24025;48.138;11.428;2024-02-21T04:54:06;96250.25;;;4.76;75.52
38225;BME280;24025;48.138;11.428;2024-02-21T04:56:38;96245.59;;;4.73;74.76
38225;BME280;24025;48.138;11.428;2024-02-21T04:59:09;96241.34;;;4.64;74.69
38225;BME280;24025;48.138;11.428;2024-02-21T05:01:41;96237.47;;;4.61;75.13
38225;BME280;24025;48.138;11.428;2024-02-21T05:04:13;96234.97;;;4.56;74.80
38225;BME280;24025;48.138;11.428;2024-02-21T05:06:45;96234.34;;;4.59;75.10
38225;BME280;24025;48.138;11.428;2024-02-21T05:09:16;96232.16;;;4.52;75.02
38225;BME280;24025;48.138;11.428;2024-02-21T05:11:48;96213.50;;;4.49;74.87
38225;BME280;24025;48.138;11.428;2024-02-21T05:14:20;96215.81;;;4.50;75.59
38225;BME280;24025;48.138;11.428;2024-02-21T05:16:52;96220.41;;;4.28;76.57
38225;BME280;24025;48.138;11.428;2024-02-21T05:19:24;96219.31;;;4.29;76.40
38225;BME280;24025;48.138;11.428;2024-02-21T05:21:58;96216.06;;;4.32;75.98
38225;BME280;24025;48.138;11.428;2024-02-21T05:24:31;96210.50;;;4.33;76.29
38225;BME280;24025;48.138;11.428;2024-02-21T05:27:03;96207.69;;;4.30;76.20
38225;BME280;24025;48.138;11.428;2024-02-21T05:29:35;96201.75;;;4.24;76.08
38225;BME280;24025;48.138;11.428;2024-02-21T05:32:07;96204.34;;;4.07;76.66
38225;BME280;24025;48.138;11.428;2024-02-21T05:34:38;96202.66;;;4.19;76.39
38225;BME280;24025;48.138;11.428;2024-02-21T05:37:10;96198.59;;;4.13;76.90
38225;BME280;24025;48.138;11.428;2024-02-21T05:39:41;96193.31;;;4.13;76.99
38225;BME280;24025;48.138;11.428;2024-02-21T05:42:13;96186.63;;;4.07;77.41
38225;BME280;24025;48.138;11.428;2024-02-21T05:44:45;96192.84;;;4.11;77.24
38225;BME280;24025;48.138;11.428;2024-02-21T05:47:16;96189.13;;;4.12;76.84
38225;BME280;24025;48.138;11.428;2024-02-21T05:49:48;96188.34;;;4.12;76.78
38225;BME280;24025;48.138;11.428;2024-02-21T05:52:20;96183.25;;;4.15;76.86
38225;BME280;24025;48.138;11.428;2024-02-21T05:54:52;96171.13;;;4.14;76.86
38225;BME280;24025;48.138;11.428;2024-02-21T05:57:23;96170.19;;;4.10;77.07
38225;BME280;24025;48.138;11.428;2024-02-21T05:59:55;96168.44;;;4.06;77.00
38225;BME280;24025;48.138;11.428;2024-02-21T06:02:27;96164.13;;;4.10;77.00
38225;BME280;24025;48.138;11.428;2024-02-21T06:04:58;96161.31;;;4.06;77.12
38225;BME280;24025;48.138;11.428;2024-02-21T06:07:30;96165.19;;;4.00;77.45
38225;BME280;24025;48.138;11.428;2024-02-21T06:10:02;96167.09;;;4.08;77.06
38225;BME280;24025;48.138;11.428;2024-02-21T06:12:34;96166.06;;;3.95;77.31
38225;BME280;24025;48.138;11.428;2024-02-21T06:15:06;96162.69;;;4.04;77.72
38225;BME280;24025;48.138;11.428;2024-02-21T06:17:38;96155.56;;;4.04;76.46
38225;BME280;24025;48.138;11.428;2024-02-21T06:20:10;96154.97;;;4.07;76.60
38225;BME280;24025;48.138;11.428;2024-02-21T06:22:42;96153.38;;;4.06;75.97
38225;BME280;24025;48.138;11.428;2024-02-21T06:25:16;96142.06;;;4.06;75.67
38225;BME280;24025;48.138;11.428;2024-02-21T06:27:48;96145.97;;;4.08;75.85
38225;BME280;24025;48.138;11.428;2024-02-21T06:30:19;96143.03;;;4.10;75.06
38225;BME280;24025;48.138;11.428;2024-02-21T06:32:51;96148.75;;;4.12;74.76
38225;BME280;24025;48.138;11.428;2024-02-21T06:35:23;96150.47;;;4.08;74.36
38225;BME280;24025;48.138;11.428;2024-02-21T06:37:57;96145.19;;;4.08;74.72
38225;BME280;24025;48.138;11.428;2024-02-21T06:40:29;96155.44;;;4.09;75.08
38225;BME280;24025;48.138;11.428;2024-02-21T06:43:03;96162.13;;;4.07;75.21
38225;BME280;24025;48.138;11.428;2024-02-21T06:45:35;96149.97;;;4.06;73.81
38225;BME280;24025;48.138;11.428;2024-02-21T06:48:06;96158.91;;;4.27;74.37
38225;BME280;24025;48.138;11.428;2024-02-21T06:50:39;96158.31;;;4.39;73.77
38225;BME280;24025;48.138;11.428;2024-02-21T06:53:11;96152.28;;;4.47;72.05
38225;BME280;24025;48.138;11.428;2024-02-21T06:55:42;96152.63;;;4.54;71.63
38225;BME280;24025;48.138;11.428;2024-02-21T06:58:14;96152.66;;;4.63;71.79
38225;BME280;24025;48.138;11.428;2024-02-21T07:00:47;96136.63;;;4.68;71.17
38225;BME280;24025;48.138;11.428;2024-02-21T07:03:18;96142.22;;;4.66;70.88
38225;BME280;24025;48.138;11.428;2024-02-21T07:05:51;96136.63;;;4.68;70.66
38225;BME280;24025;48.138;11.428;2024-02-21T07:08:22;96139.44;;;4.71;70.32
38225;BME280;24025;48.138;11.428;2024-02-21T07:10:54;96146.16;;;4.69;70.57
38225;BME280;24025;48.138;11.428;2024-02-21T07:13:26;96147.69;;;4.70;70.40
38225;BME280;24025;48.138;11.428;2024-02-21T07:15:58;96142.41;;;4.78;70.45
38225;BME280;24025;48.138;11.428;2024-02-21T07:18:29;96151.25;;;4.74;70.34
38225;BME280;24025;48.138;11.428;2024-02-21T07:21:01;96144.75;;;4.80;70.35
38225;BME280;24025;48.138;11.428;2024-02-21T07:23:33;96146.31;;;4.90;70.25
38225;BME280;24025;48.138;11.428;2024-02-21T07:26:04;96141.47;;;4.92;70.42
38225;BME280;24025;48.138;11.428;2024-02-21T07:28:36;96138.72;;;5.05;69.17
38225;BME280;24025;48.138;11.428;2024-02-21T07:31:08;96143.34;;;5.17;68.56
38225;BME280;24025;48.138;11.428;2024-02-21T07:33:41;96140.25;;;5.24;67.71
38225;BME280;24025;48.138;11.428;2024-02-21T07:36:15;96132.78;;;5.34;67.59
38225;BME280;24025;48.138;11.428;2024-02-21T07:38:46;96130.44;;;5.33;66.25
38225;BME280;24025;48.138;11.428;2024-02-21T07:41:18;96119.53;;;5.43;66.76
38225;BME280;24025;48.138;11.428;2024-02-21T07:43:50;96111.94;;;5.42;67.00
38225;BME280;24025;48.138;11.428;2024-02-21T07:46:21;96104.13;;;5.45;67.11
38225;BME280;24025;48.138;11.428;2024-02-21T07:48:53;96106.63;;;5.42;66.63
38225;BME280;24025;48.138;11.428;2024-02-21T07:51:27;96109.13;;;5.38;66.63
38225;BME280;24025;48.138;11.428;2024-02-21T07:53:59;96103.03;;;5.46;66.53
38225;BME280;24025;48.138;11.428;2024-02-21T07:56:31;96095.59;;;5.39;66.38
38225;BME280;24025;48.138;11.428;2024-02-21T07:59:03;96096.19;;;5.45;66.45
38225;BME280;24025;48.138;11.428;2024-02-21T08:01:34;96085.00;;;5.48;65.40
38225;BME280;24025;48.138;11.428;2024-02-21T08:04:06;96076.75;;;5.50;65.11
38225;BME280;24025;48.138;11.428;2024-02-21T08:06:38;96075.47;;;5.56;65.33
38225;BME280;24025;48.138;11.428;2024-02-21T08:09:10;96069.56;;;5.59;62.68
38225;BME280;24025;48.138;11.428;2024-02-21T08:11:41;96075.16;;;5.66;63.03
38225;BME280;24025;48.138;11.428;2024-02-21T08:14:13;96074.97;;;5.71;62.17
38225;BME280;24025;48.138;11.428;2024-02-21T08:16:51;96068.44;;;5.68;61.60
38225;BME280;24025;48.138;11.428;2024-02-21T08:19:27;96058.16;;;5.76;61.74
38225;BME280;24025;48.138;11.428;2024-02-21T08:21:58;96062.63;;;5.84;61.04
38225;BME280;24025;48.138;11.428;2024-02-21T08:24:31;96056.69;;;5.87;60.45
38225;BME280;24025;48.138;11.428;2024-02-21T08:27:03;96058.22;;;5.96;60.42
38225;BME280;24025;48.138;11.428;2024-02-21T08:29:35;96074.25;;;6.00;59.43
38225;BME280;24025;48.138;11.428;2024-02-21T08:32:06;96067.03;;;6.09;59.47
38225;BME280;24025;48.138;11.428;2024-02-21T08:34:38;96063.28;;;6.19;59.67
38225;BME280;24025;48.138;11.428;2024-02-21T08:37:10;96072.88;;;6.23;59.48
38225;BME280;24025;48.138;11.428;2024-02-21T08:39:42;96070.28;;;6.15;59.52
38225;BME280;24025;48.138;11.428;2024-02-21T08:42:13;96066.38;;;6.21;60.00
38225;BME280;24025;48.138;11.428;2024-02-21T08:44:45;96062.75;;;6.25;59.28
38225;BME280;24025;48.138;11.428;2024-02-21T08:47:17;96054.06;;;6.16;60.10
38225;BME280;24025;48.138;11.428;2024-02-21T08:49:50;96049.50;;;6.25;60.31
38225;BME280;24025;48.138;11.428;2024-02-21T08:52:21;96055.06;;;6.33;59.05
38225;BME280;24025;48.138;11.428;2024-02-21T08:54:53;96047.34;;;6.48;59.13
38225;BME280;24025;48.138;11.428;2024-02-21T08:57:25;96045.47;;;6.49;58.07
38225;BME280;24025;48.138;11.428;2024-02-21T08:59:57;96046.56;;;6.69;58.15
38225;BME280;24025;48.138;11.428;2024-02-21T09:02:28;96044.53;;;6.87;58.73
38225;BME280;24025;48.138;11.428;2024-02-21T09:05:00;96042.56;;;6.84;57.27
38225;BME280;24025;48.138;11.428;2024-02-21T09:07:32;96046.94;;;7.00;57.35
38225;BME280;24025;48.138;11.428;2024-02-21T09:10:04;96048.66;;;6.96;56.78
38225;BME280;24025;48.138;11.428;2024-02-21T09:12:35;96045.16;;;7.04;56.78
38225;BME280;24025;48.138;11.428;2024-02-21T09:15:07;96036.41;;;7.25;57.63
38225;BME280;24025;48.138;11.428;2024-02-21T09:17:39;96045.59;;;7.39;57.27
38225;BME280;24025;48.138;11.428;2024-02-21T09:20:11;96053.56;;;7.39;56.12
38225;BME280;24025;48.138;11.428;2024-02-21T09:22:43;96052.59;;;7.56;55.73
38225;BME280;24025;48.138;11.428;2024-02-21T09:25:15;96041.91;;;7.65;55.81
38225;BME280;24025;48.138;11.428;2024-02-21T09:27:47;96040.34;;;7.76;54.63
38225;BME280;24025;48.138;11.428;2024-02-21T09:30:18;96042.25;;;7.88;54.75
38225;BME280;24025;48.138;11.428;2024-02-21T09:32:50;96047.09;;;7.86;53.92
38225;BME280;24025;48.138;11.428;2024-02-21T09:35:22;96041.38;;;7.96;53.64
38225;BME280;24025;48.138;11.428;2024-02-21T09:37:55;96037.38;;;8.14;53.08
38225;BME280;24025;48.138;11.428;2024-02-21T09:40:27;96034.16;;;8.21;53.11
38225;BME280;24025;48.138;11.428;2024-02-21T09:43:07;96029.59;;;8.46;53.28
38225;BME280;24025;48.138;11.428;2024-02-21T09:45:40;96027.06;;;8.49;52.07
38225;BME280;24025;48.138;11.428;2024-02-21T09:48:41;96031.22;;;8.63;51.33
38225;BME280;24025;48.138;11.428;2024-02-21T09:51:17;96027.56;;;8.67;50.36
38225;BME280;24025;48.138;11.428;2024-02-21T09:53:50;96017.16;;;8.90;50.58
38225;BME280;24025;48.138;11.428;2024-02-21T09:56:37;96022.50;;;8.90;48.87
38225;BME280;24025;48.138;11.428;2024-02-21T09:59:09;96022.97;;;9.08;49.65
38225;BME280;24025;48.138;11.428;2024-02-21T10:01:44;96014.50;;;9.18;48.50
38225;BME280;24025;48.138;11.428;2024-02-21T10:04:20;96016.84;;;9.20;48.37
38225;BME280;24025;48.138;11.428;2024-02-21T10:06:53;96017.53;;;9.32;47.42
38225;BME280;24025;48.138;11.428;2024-02-21T10:09:28;96014.97;;;9.52;48.25
38225;BME280;24025;48.138;11.428;2024-02-21T10:12:08;96008.69;;;9.44;46.80
38225;BME280;24025;48.138;11.428;2024-02-21T10:14:40;96011.91;;;9.65;46.74
38225;BME280;24025;48.138;11.428;2024-02-21T10:17:16;96009.06;;;9.58;46.03
38225;BME280;24025;48.138;11.428;2024-02-21T10:19:50;96013.59;;;9.58;45.99
38225;BME280;24025;48.138;11.428;2024-02-21T10:22:23;95994.53;;;9.87;45.41
38225;BME280;24025;48.138;11.428;2024-02-21T10:25:07;96001.22;;;9.97;45.45
38225;BME280;24025;48.138;11.428;2024-02-21T10:27:39;95991.09;;;10.38;45.54
38225;BME280;24025;48.138;11.428;2024-02-21T10:30:14;95990.91;;;10.46;45.55
38225;BME280;24025;48.138;11.428;2024-02-21T10:32:50;95989.84;;;10.51;45.18
38225;BME280;24025;48.138;11.428;2024-02-21T10:35:30;95978.78;;;10.88;43.98
38225;BME280;24025;48.138;11.428;2024-02-21T10:38:02;95966.91;;;11.04;42.08
38225;BME280;24025;48.138;11.428;2024-02-21T10:40:35;95958.38;;;11.41;41.35
38225;BME280;24025;48.138;11.428;2024-02-21T10:43:12;95960.03;;;11.26;41.50
38225;BME280;24025;48.138;11.428;2024-02-21T10:45:44;95946.38;;;11.09;41.47
38225;BME280;24025;48.138;11.428;2024-02-21T10:48:20;95945.63;;;10.89;40.73
38225;BME280;24025;48.138;11.428;2024-02-21T10:51:02;95935.28;;;11.06;39.90
38225;BME280;24025;48.138;11.428;2024-02-21T10:56:28;95924.19;;;11.27;40.63
38225;BME280;24025;48.138;11.428;2024-02-21T10:59:02;95926.13;;;11.07;39.97
38225;BME280;24025;48.138;11.428;2024-02-21T11:01:34;95926.72;;;11.43;40.39
38225;BME280;24025;48.138;11.428;2024-02-21T11:04:11;95913.69;;;11.87;39.75
38225;BME280;24025;48.138;11.428;2024-02-21T11:06:46;95916.00;;;12.19;38.33
38225;BME280;24025;48.138;11.428;2024-02-21T11:09:18;95907.44;;;12.36;37.56
38225;BME280;24025;48.138;11.428;2024-02-21T11:12:06;95894.69;;;12.93;35.64
38225;BME280;24025;48.138;11.428;2024-02-21T11:14:39;95899.28;;;12.26;36.16
38225;BME280;24025;48.138;11.428;2024-02-21T11:17:18;95886.84;;;12.07;35.53
38225;BME280;24025;48.138;11.428;2024-02-21T11:19:50;95878.69;;;12.60;35.95
38225;BME280;24025;48.138;11.428;2024-02-21T11:22:22;95881.22;;;12.15;35.20
38225;BME280;24025;48.138;11.428;2024-02-21T11:25:06;95869.53;;;13.01;35.19
38225;BME280;24025;48.138;11.428;2024-02-21T11:27:45;95865.66;;;12.55;34.93
38225;BME280;24025;48.138;11.428;2024-02-21T11:30:17;95860.03;;;12.67;35.77
38225;BME280;24025;48.138;11.428;2024-02-21T11:33:03;95856.25;;;13.16;34.99
38225;BME280;24025;48.138;11.428;2024-02-21T11:35:36;95850.34;;;12.92;33.68
38225;BME280;24025;48.138;11.428;2024-02-21T11:40:45;95842.38;;;12.62;34.82
38225;BME280;24025;48.138;11.428;2024-02-21T11:43:16;95838.88;;;12.95;34.41
38225;BME280;24025;48.138;11.428;2024-02-21T11:45:48;95834.38;;;12.62;33.72
38225;BME280;24025;48.138;11.428;2024-02-21T11:48:20;95831.81;;;12.73;35.17
38225;BME280;24025;48.138;11.428;2024-02-21T11:50:55;95828.00;;;12.37;34.89
38225;BME280;24025;48.138;11.428;2024-02-21T11:53:27;95826.94;;;12.86;35.58
38225;BME280;24025;48.138;11.428;2024-02-21T11:56:05;95805.75;;;13.11;34.25
38225;BME280;24025;48.138;11.428;2024-02-21T11:58:36;95803.94;;;13.22;33.86
38225;BME280;24025;48.138;11.428;2024-02-21T12:01:08;95795.56;;;13.27;32.89
38225;BME280;24025;48.138;11.428;2024-02-21T12:03:44;95790.38;;;13.04;33.14
38225;BME280;24025;48.138;11.428;2024-02-21T12:06:21;95783.97;;;13.16;33.55
38225;BME280;24025;48.138;11.428;2024-02-21T12:08:57;95783.13;;;13.04;33.42
38225;BME280;24025;48.138;11.428;2024-02-21T12:11:29;95775.06;;;13.59;34.52
38225;BME280;24025;48.138;11.428;2024-02-21T12:14:02;95765.28;;;13.92;32.74
38225;BME280;24025;48.138;11.428;2024-02-21T12:16:36;95758.88;;;14.39;32.62
38225;BME280;24025;48.138;11.428;2024-02-21T12:19:08;95757.72;;;14.30;31.76
38225;BME280;24025;48.138;11.428;2024-02-21T12:21:40;95752.69;;;14.07;31.28
38225;BME280;24025;48.138;11.428;2024-02-21T12:24:20;95749.44;;;13.58;31.51
38225;BME280;24025;48.138;11.428;2024-02-21T12:26:53;95743.09;;;13.99;33.21
38225;BME280;24025;48.138;11.428;2024-02-21T12:29:25;95737.03;;;14.34;31.67
38225;BME280;24025;48.138;11.428;2024-02-21T12:31:57;95725.19;;;14.42;30.77
38225;BME280;24025;48.138;11.428;2024-02-21T12:34:28;95728.28;;;14.90;31.94
38225;BME280;24025;48.138;11.428;2024-02-21T12:37:19;95725.50;;;15.47;30.54
38225;BME280;24025;48.138;11.428;2024-02-21T12:39:52;95718.94;;;16.39;29.23
38225;BME280;24025;48.138;11.428;2024-02-21T12:42:24;95708.09;;;17.40;27.45
38225;BME280;24025;48.138;11.428;2024-02-21T12:44:57;95700.88;;;17.67;26.74
38225;BME280;24025;48.138;11.428;2024-02-21T12:47:29;95695.34;;;18.08;26.80
38225;BME280;24025;48.138;11.428;2024-02-21T12:50:00;95689.28;;;17.36;26.82
38225;BME280;24025;48.138;11.428;2024-02-21T12:52:35;95679.72;;;18.50;26.01
38225;BME280;24025;48.138;11.428;2024-02-21T12:55:07;95679.97;;;18.05;26.34
38225;BME280;24025;48.138;11.428;2024-02-21T12:57:41;95681.22;;;17.70;26.22
38225;BME280;24025;48.138;11.428;2024-02-21T13:00:13;95666.25;;;19.17;25.57
38225;BME280;24025;48.138;11.428;2024-02-21T13:02:45;95664.56;;;19.46;25.60
38225;BME280;24025;48.138;11.428;2024-02-21T13:05:17;95661.81;;;20.38;24.23
38225;BME280;24025;48.138;11.428;2024-02-21T13:07:49;95666.06;;;20.40;23.21
38225;BME280;24025;48.138;11.428;2024-02-21T13:10:21;95644.22;;;20.30;23.48
38225;BME280;24025;48.138;11.428;2024-02-21T13:12:53;95635.78;;;22.19;22.21
38225;BME280;24025;48.138;11.428;2024-02-21T13:15:24;95634.94;;;22.69;20.68
38225;BME280;24025;48.138;11.428;2024-02-21T13:17:56;95631.38;;;23.94;20.40
38225;BME280;24025;48.138;11.428;2024-02-21T13:20:29;95625.34;;;22.77;19.98
38225;BME280;24025;48.138;11.428;2024-02-21T13:23:00;95615.00;;;23.63;19.43
38225;BME280;24025;48.138;11.428;2024-02-21T13:25:32;95617.19;;;23.56;20.19
38225;BME280;24025;48.138;11.428;2024-02-21T13:28:05;95615.50;;;24.33;18.97
38225;BME280;24025;48.138;11.428;2024-02-21T13:30:36;95610.09;;;23.58;19.90